CCM76CO LFMN-LFKC
Flight info
| Callsign | CCM76CO |
|---|---|
| Flight time | 0h 23m |
| Altitude | 13000 |
| Route | SODRI |
| Aircraft | A320/M-SDE3FGHIRWY/LB1 |
Departure
| Time | 2026-04-23 19:24 |
|---|---|
| Airport | Nice-Côte d'Azur Airport (LFMN) |
Arrival
| Time | 2026-04-23 19:47 |
|---|---|
| Airport | Calvi Sainte Catherine Airport (LFKC) |
| Time | Latitude | Longitude | Altitude | Speed | Heading |
|---|---|---|---|---|---|
| 2026-04-23 18:56 | 43.66171 | 7.20674 | 21 ft | 0 kts | 261° |
| 2026-04-23 19:14 | 43.66171 | 7.20675 | 21 ft | 1 kts | 261° |
| 2026-04-23 19:14 | 43.66175 | 7.20708 | 21 ft | 4 kts | 261° |
| 2026-04-23 19:15 | 43.66178 | 7.20737 | 21 ft | 4 kts | 255° |
| 2026-04-23 19:15 | 43.66190 | 7.20766 | 21 ft | 4 kts | 207° |
| 2026-04-23 19:15 | 43.66212 | 7.20771 | 21 ft | 4 kts | 171° |
| 2026-04-23 19:15 | 43.66220 | 7.20769 | 21 ft | 0 kts | 171° |
| 2026-04-23 19:18 | 43.66211 | 7.20771 | 21 ft | 5 kts | 171° |
| 2026-04-23 19:18 | 43.66177 | 7.20779 | 23 ft | 5 kts | 171° |
| 2026-04-23 19:19 | 43.65989 | 7.20819 | 23 ft | 19 kts | 171° |
| 2026-04-23 19:19 | 43.65850 | 7.20851 | 21 ft | 21 kts | 171° |
| 2026-04-23 19:20 | 43.65907 | 7.21082 | 22 ft | 20 kts | 45° |
| 2026-04-23 19:20 | 43.66011 | 7.21226 | 21 ft | 22 kts | 45° |
| 2026-04-23 19:20 | 43.66127 | 7.21386 | 21 ft | 25 kts | 44° |
| 2026-04-23 19:20 | 43.66255 | 7.21561 | 22 ft | 27 kts | 45° |
| 2026-04-23 19:21 | 43.66393 | 7.21749 | 23 ft | 29 kts | 45° |
| 2026-04-23 19:21 | 43.66520 | 7.22073 | 22 ft | 17 kts | 135° |
| 2026-04-23 19:21 | 43.66431 | 7.22193 | 24 ft | 18 kts | 135° |
| 2026-04-23 19:22 | 43.66372 | 7.22344 | 22 ft | 20 kts | 75° |
| 2026-04-23 19:22 | 43.66467 | 7.22491 | 21 ft | 22 kts | 45° |
| 2026-04-23 19:22 | 43.66549 | 7.22758 | 23 ft | 11 kts | 146° |
| 2026-04-23 19:23 | 43.66471 | 7.22721 | 24 ft | 16 kts | 225° |
| 2026-04-23 19:23 | 43.66263 | 7.22433 | 24 ft | 81 kts | 225° |
| 2026-04-23 19:23 | 43.65698 | 7.21655 | 23 ft | 145 kts | 225° |
| 2026-04-23 19:24 | 43.64131 | 7.19501 | 1274 ft | 161 kts | 226° |
| 2026-04-23 19:24 | 43.63294 | 7.18352 | 1774 ft | 181 kts | 225° |
| 2026-04-23 19:24 | 43.61224 | 7.15763 | 2750 ft | 218 kts | 205° |
| 2026-04-23 19:25 | 43.58314 | 7.16332 | 4452 ft | 226 kts | 149° |
| 2026-04-23 19:25 | 43.55587 | 7.18594 | 6211 ft | 232 kts | 139° |
| 2026-04-23 19:26 | 43.53531 | 7.22498 | 7247 ft | 274 kts | 120° |
| 2026-04-23 19:26 | 43.52522 | 7.24773 | 8084 ft | 281 kts | 120° |
| 2026-04-23 19:27 | 43.50463 | 7.29415 | 9905 ft | 290 kts | 120° |
| 2026-04-23 19:27 | 43.47009 | 7.37152 | 11223 ft | 351 kts | 119° |
| 2026-04-23 19:28 | 43.44291 | 7.43211 | 11835 ft | 386 kts | 119° |
| 2026-04-23 19:28 | 43.41440 | 7.49524 | 13004 ft | 395 kts | 119° |
| 2026-04-23 19:29 | 43.39989 | 7.52728 | 13157 ft | 396 kts | 119° |
| 2026-04-23 19:29 | 43.37033 | 7.59276 | 13192 ft | 406 kts | 119° |
| 2026-04-23 19:30 | 43.34052 | 7.65863 | 13193 ft | 406 kts | 119° |
| 2026-04-23 19:30 | 43.32556 | 7.69152 | 13192 ft | 406 kts | 120° |
| 2026-04-23 19:30 | 43.29562 | 7.75725 | 13192 ft | 406 kts | 119° |
| 2026-04-23 19:31 | 43.28872 | 7.77243 | 13192 ft | 406 kts | 119° |
| 2026-04-23 19:31 | 43.27395 | 7.80485 | 13192 ft | 406 kts | 119° |
| 2026-04-23 19:31 | 43.25898 | 7.83766 | 13190 ft | 405 kts | 120° |
| 2026-04-23 19:31 | 43.24399 | 7.87043 | 13189 ft | 406 kts | 120° |
| 2026-04-23 19:32 | 43.22900 | 7.90316 | 13187 ft | 406 kts | 120° |
| 2026-04-23 19:32 | 43.21401 | 7.93595 | 13187 ft | 406 kts | 120° |
| 2026-04-23 19:32 | 43.19899 | 7.96876 | 13187 ft | 406 kts | 120° |
| 2026-04-23 19:32 | 43.18396 | 8.00157 | 13188 ft | 406 kts | 120° |
| 2026-04-23 19:33 | 43.17032 | 8.03135 | 13186 ft | 407 kts | 119° |
| 2026-04-23 19:33 | 43.15528 | 8.06412 | 13187 ft | 406 kts | 119° |
| 2026-04-23 19:33 | 43.12537 | 8.12913 | 13187 ft | 406 kts | 119° |
| 2026-04-23 19:34 | 43.11223 | 8.15763 | 13184 ft | 406 kts | 119° |
| 2026-04-23 19:34 | 43.09715 | 8.19028 | 13178 ft | 406 kts | 119° |
| 2026-04-23 19:34 | 43.06694 | 8.25550 | 13071 ft | 406 kts | 119° |
| 2026-04-23 19:35 | 43.05183 | 8.28804 | 12797 ft | 404 kts | 119° |
| 2026-04-23 19:35 | 43.03688 | 8.32019 | 12138 ft | 398 kts | 119° |
| 2026-04-23 19:35 | 43.02251 | 8.35217 | 11522 ft | 389 kts | 115° |
| 2026-04-23 19:35 | 43.01236 | 8.38521 | 11374 ft | 366 kts | 104° |
| 2026-04-23 19:36 | 43.00670 | 8.41758 | 11248 ft | 346 kts | 98° |
| 2026-04-23 19:36 | 43.00226 | 8.44905 | 11123 ft | 329 kts | 98° |
| 2026-04-23 19:36 | 42.99797 | 8.47903 | 10998 ft | 315 kts | 98° |
| 2026-04-23 19:36 | 42.99383 | 8.50778 | 10873 ft | 302 kts | 98° |
| 2026-04-23 19:37 | 42.98988 | 8.53536 | 10720 ft | 291 kts | 98° |
| 2026-04-23 19:37 | 42.98605 | 8.56215 | 10536 ft | 285 kts | 98° |
| 2026-04-23 19:37 | 42.98224 | 8.58871 | 10474 ft | 285 kts | 98° |
| 2026-04-23 19:37 | 42.97844 | 8.61525 | 10388 ft | 285 kts | 98° |
| 2026-04-23 19:38 | 42.97470 | 8.64141 | 10265 ft | 284 kts | 98° |
| 2026-04-23 19:38 | 42.97089 | 8.66789 | 10127 ft | 285 kts | 98° |
| 2026-04-23 19:38 | 42.96702 | 8.69471 | 9575 ft | 290 kts | 98° |
| 2026-04-23 19:38 | 42.96314 | 8.72149 | 9224 ft | 286 kts | 99° |
| 2026-04-23 19:39 | 42.95911 | 8.74806 | 8785 ft | 286 kts | 104° |
| 2026-04-23 19:39 | 42.94982 | 8.77195 | 8369 ft | 289 kts | 130° |
| 2026-04-23 19:39 | 42.93349 | 8.78772 | 7943 ft | 291 kts | 158° |
| 2026-04-23 19:39 | 42.91357 | 8.79207 | 7511 ft | 292 kts | 179° |
| 2026-04-23 19:40 | 42.89324 | 8.79223 | 7066 ft | 291 kts | 179° |
| 2026-04-23 19:40 | 42.87336 | 8.79228 | 6733 ft | 286 kts | 179° |
| 2026-04-23 19:40 | 42.85389 | 8.79221 | 6606 ft | 273 kts | 179° |
| 2026-04-23 19:40 | 42.83497 | 8.79212 | 6055 ft | 277 kts | 180° |
| 2026-04-23 19:41 | 42.81548 | 8.79205 | 5377 ft | 280 kts | 180° |
| 2026-04-23 19:41 | 42.79600 | 8.79202 | 4632 ft | 280 kts | 180° |
| 2026-04-23 19:41 | 42.77660 | 8.79201 | 3889 ft | 278 kts | 180° |
| 2026-04-23 19:41 | 42.75753 | 8.79202 | 3473 ft | 267 kts | 180° |
| 2026-04-23 19:42 | 42.73958 | 8.79209 | 3313 ft | 249 kts | 180° |
| 2026-04-23 19:42 | 42.72308 | 8.79218 | 3202 ft | 231 kts | 180° |
| 2026-04-23 19:42 | 42.70757 | 8.79223 | 3101 ft | 216 kts | 180° |
| 2026-04-23 19:42 | 42.69311 | 8.79227 | 3030 ft | 198 kts | 180° |
| 2026-04-23 19:43 | 42.68031 | 8.79232 | 2982 ft | 171 kts | 180° |
| 2026-04-23 19:43 | 42.66889 | 8.79255 | 2802 ft | 157 kts | 179° |
| 2026-04-23 19:43 | 42.65842 | 8.79321 | 2703 ft | 147 kts | 178° |
| 2026-04-23 19:43 | 42.64836 | 8.79364 | 2482 ft | 143 kts | 181° |
| 2026-04-23 19:44 | 42.63854 | 8.79303 | 2188 ft | 140 kts | 186° |
| 2026-04-23 19:44 | 42.62882 | 8.79225 | 1859 ft | 139 kts | 181° |
| 2026-04-23 19:44 | 42.61928 | 8.79211 | 1624 ft | 135 kts | 180° |
| 2026-04-23 19:44 | 42.61006 | 8.79270 | 1397 ft | 134 kts | 179° |
| 2026-04-23 19:45 | 42.60089 | 8.79300 | 1196 ft | 130 kts | 181° |
| 2026-04-23 19:45 | 42.59188 | 8.79267 | 1054 ft | 129 kts | 182° |
| 2026-04-23 19:45 | 42.58291 | 8.79255 | 894 ft | 129 kts | 178° |
| 2026-04-23 19:45 | 42.57397 | 8.79311 | 737 ft | 128 kts | 178° |
| 2026-04-23 19:46 | 42.56504 | 8.79310 | 631 ft | 128 kts | 180° |
| 2026-04-23 19:46 | 42.55608 | 8.79299 | 437 ft | 129 kts | 180° |
| 2026-04-23 19:46 | 42.54714 | 8.79302 | 244 ft | 128 kts | 180° |
| 2026-04-23 19:46 | 42.53839 | 8.79300 | 109 ft | 125 kts | 180° |
| 2026-04-23 19:47 | 42.53131 | 8.79300 | 142 ft | 65 kts | 179° |
| 2026-04-23 19:47 | 42.52895 | 8.79301 | 161 ft | 24 kts | 181° |
| 2026-04-23 19:47 | 42.52720 | 8.79300 | 174 ft | 26 kts | 180° |
| 2026-04-23 19:47 | 42.52555 | 8.79300 | 187 ft | 22 kts | 180° |
| 2026-04-23 19:48 | 42.52439 | 8.79264 | 196 ft | 13 kts | 242° |
| 2026-04-23 19:48 | 42.52441 | 8.79151 | 197 ft | 12 kts | 286° |
| 2026-04-23 19:48 | 42.52467 | 8.79084 | 200 ft | 6 kts | 300° |
| 2026-04-23 19:48 | 42.52470 | 8.79078 | 192 ft | 0 kts | 300° |